sensor_id;sensor_type;location;lat;lon;timestamp;pressure;altitude;pressure_sealevel;temperature;humidity
51147;BME280;37207;53.060;18.726;2023-02-25T00:01:23;98408.30;;;2.09;86.65
51147;BME280;37207;53.060;18.726;2023-02-25T00:03:55;98405.45;;;2.08;86.72
51147;BME280;37207;53.060;18.726;2023-02-25T00:06:21;98403.73;;;2.07;86.69
51147;BME280;37207;53.060;18.726;2023-02-25T00:08:49;98408.05;;;2.07;86.84
51147;BME280;37207;53.060;18.726;2023-02-25T00:11:17;98404.77;;;2.07;86.93
51147;BME280;37207;53.060;18.726;2023-02-25T00:13:45;98399.28;;;2.08;86.89
51147;BME280;37207;53.060;18.726;2023-02-25T00:16:20;98396.30;;;2.08;87.00
51147;BME280;37207;53.060;18.726;2023-02-25T00:18:47;98392.73;;;2.08;87.10
51147;BME280;37207;53.060;18.726;2023-02-25T00:21:25;98391.25;;;2.08;87.13
51147;BME280;37207;53.060;18.726;2023-02-25T00:23:55;98385.55;;;2.08;87.26
51147;BME280;37207;53.060;18.726;2023-02-25T00:26:22;98387.19;;;2.08;87.24
51147;BME280;37207;53.060;18.726;2023-02-25T00:28:55;98383.18;;;2.09;87.19
51147;BME280;37207;53.060;18.726;2023-02-25T00:31:31;98383.00;;;2.10;87.13
51147;BME280;37207;53.060;18.726;2023-02-25T00:33:59;98381.16;;;2.10;87.19
51147;BME280;37207;53.060;18.726;2023-02-25T00:36:26;98379.03;;;2.10;87.24
51147;BME280;37207;53.060;18.726;2023-02-25T00:38:55;98374.60;;;2.12;87.18
51147;BME280;37207;53.060;18.726;2023-02-25T00:41:26;98370.98;;;2.12;87.40
51147;BME280;37207;53.060;18.726;2023-02-25T00:43:55;98366.18;;;2.12;87.42
51147;BME280;37207;53.060;18.726;2023-02-25T00:46:22;98365.70;;;2.13;87.45
51147;BME280;37207;53.060;18.726;2023-02-25T00:48:48;98358.85;;;2.12;87.55
51147;BME280;37207;53.060;18.726;2023-02-25T00:51:19;98357.61;;;2.12;87.53
51147;BME280;37207;53.060;18.726;2023-02-25T00:53:49;98358.82;;;2.13;87.58
51147;BME280;37207;53.060;18.726;2023-02-25T00:56:24;98345.36;;;2.14;87.69
51147;BME280;37207;53.060;18.726;2023-02-25T00:58:51;98341.50;;;2.15;87.71
51147;BME280;37207;53.060;18.726;2023-02-25T01:01:25;98338.53;;;2.15;87.72
51147;BME280;37207;53.060;18.726;2023-02-25T01:03:53;98338.59;;;2.16;87.69
51147;BME280;37207;53.060;18.726;2023-02-25T01:06:22;98335.95;;;2.15;87.77
51147;BME280;37207;53.060;18.726;2023-02-25T01:08:48;98329.77;;;2.15;87.75
51147;BME280;37207;53.060;18.726;2023-02-25T01:11:18;98327.38;;;2.14;87.79
51147;BME280;37207;53.060;18.726;2023-02-25T01:13:48;98323.91;;;2.14;87.89
51147;BME280;37207;53.060;18.726;2023-02-25T01:16:16;98320.29;;;2.13;87.92
51147;BME280;37207;53.060;18.726;2023-02-25T01:18:43;98316.61;;;2.12;88.02
51147;BME280;37207;53.060;18.726;2023-02-25T01:21:16;98314.23;;;2.12;87.95
51147;BME280;37207;53.060;18.726;2023-02-25T01:23:46;98311.86;;;2.11;88.09
51147;BME280;37207;53.060;18.726;2023-02-25T01:26:13;98311.65;;;2.10;88.15
51147;BME280;37207;53.060;18.726;2023-02-25T01:28:39;98304.07;;;2.10;88.24
51147;BME280;37207;53.060;18.726;2023-02-25T01:31:07;98301.73;;;2.08;88.25
51147;BME280;37207;53.060;18.726;2023-02-25T01:33:42;98302.98;;;2.07;88.23
51147;BME280;37207;53.060;18.726;2023-02-25T01:36:08;98298.22;;;2.06;88.32
51147;BME280;37207;53.060;18.726;2023-02-25T01:38:34;98295.43;;;2.05;88.44
51147;BME280;37207;53.060;18.726;2023-02-25T01:41:01;98294.70;;;2.05;88.39
51147;BME280;37207;53.060;18.726;2023-02-25T01:43:28;98289.64;;;2.05;88.50
51147;BME280;37207;53.060;18.726;2023-02-25T01:45:55;98285.14;;;2.05;88.45
51147;BME280;37207;53.060;18.726;2023-02-25T01:48:26;98282.00;;;2.04;88.72
51147;BME280;37207;53.060;18.726;2023-02-25T01:50:59;98281.16;;;2.03;88.74
51147;BME280;37207;53.060;18.726;2023-02-25T01:53:31;98279.27;;;2.03;88.76
51147;BME280;37207;53.060;18.726;2023-02-25T01:56:00;98273.54;;;2.03;88.83
51147;BME280;37207;53.060;18.726;2023-02-25T01:58:29;98275.06;;;2.03;88.91
51147;BME280;37207;53.060;18.726;2023-02-25T02:00:57;98276.11;;;2.03;88.94
51147;BME280;37207;53.060;18.726;2023-02-25T02:03:25;98272.93;;;2.02;88.95
51147;BME280;37207;53.060;18.726;2023-02-25T02:05:58;98274.16;;;2.02;88.99
51147;BME280;37207;53.060;18.726;2023-02-25T02:08:27;98270.64;;;2.01;89.06
51147;BME280;37207;53.060;18.726;2023-02-25T02:10:53;98269.25;;;2.00;89.19
51147;BME280;37207;53.060;18.726;2023-02-25T02:13:21;98260.92;;;1.99;89.15
51147;BME280;37207;53.060;18.726;2023-02-25T02:18:26;98260.17;;;2.00;89.30
51147;BME280;37207;53.060;18.726;2023-02-25T02:21:21;98258.06;;;2.00;89.34
51147;BME280;37207;53.060;18.726;2023-02-25T02:26:55;98255.09;;;2.00;89.46
51147;BME280;37207;53.060;18.726;2023-02-25T02:29:36;98247.15;;;1.99;89.48
51147;BME280;37207;53.060;18.726;2023-02-25T02:40:02;98236.58;;;2.00;89.47
51147;BME280;37207;53.060;18.726;2023-02-25T02:42:54;98230.83;;;2.00;89.56
51147;BME280;37207;53.060;18.726;2023-02-25T02:45:38;98226.73;;;2.01;89.59
51147;BME280;37207;53.060;18.726;2023-02-25T02:48:13;98222.56;;;2.01;89.60
51147;BME280;37207;53.060;18.726;2023-02-25T02:50:46;98225.58;;;2.01;89.58
51147;BME280;37207;53.060;18.726;2023-02-25T02:53:20;98218.35;;;2.01;89.70
51147;BME280;37207;53.060;18.726;2023-02-25T02:55:52;98213.27;;;2.01;89.70
51147;BME280;37207;53.060;18.726;2023-02-25T02:58:43;98211.33;;;2.01;89.64
51147;BME280;37207;53.060;18.726;2023-02-25T03:01:18;98208.30;;;2.00;89.66
51147;BME280;37207;53.060;18.726;2023-02-25T03:03:51;98208.04;;;1.99;89.93
51147;BME280;37207;53.060;18.726;2023-02-25T03:06:26;98203.78;;;1.99;89.75
51147;BME280;37207;53.060;18.726;2023-02-25T03:08:58;98199.58;;;1.99;90.01
51147;BME280;37207;53.060;18.726;2023-02-25T03:11:27;98201.05;;;1.98;89.88
51147;BME280;37207;53.060;18.726;2023-02-25T03:13:53;98199.22;;;1.98;89.88
51147;BME280;37207;53.060;18.726;2023-02-25T03:16:24;98196.65;;;1.98;89.87
51147;BME280;37207;53.060;18.726;2023-02-25T03:19:07;98196.70;;;1.98;90.00
51147;BME280;37207;53.060;18.726;2023-02-25T03:21:46;98193.58;;;1.97;90.04
51147;BME280;37207;53.060;18.726;2023-02-25T03:24:19;98194.16;;;1.97;90.09
51147;BME280;37207;53.060;18.726;2023-02-25T03:26:51;98193.02;;;1.97;90.06
51147;BME280;37207;53.060;18.726;2023-02-25T03:29:23;98195.45;;;1.96;90.04
51147;BME280;37207;53.060;18.726;2023-02-25T03:31:58;98194.84;;;1.96;90.14
51147;BME280;37207;53.060;18.726;2023-02-25T03:34:36;98190.15;;;1.96;90.11
51147;BME280;37207;53.060;18.726;2023-02-25T03:37:12;98187.82;;;1.96;90.14
51147;BME280;37207;53.060;18.726;2023-02-25T03:39:47;98187.08;;;1.96;90.12
51147;BME280;37207;53.060;18.726;2023-02-25T03:42:21;98189.14;;;1.95;90.18
51147;BME280;37207;53.060;18.726;2023-02-25T03:44:54;98187.11;;;1.94;90.34
51147;BME280;37207;53.060;18.726;2023-02-25T03:47:22;98189.54;;;1.94;90.39
51147;BME280;37207;53.060;18.726;2023-02-25T03:50:00;98189.78;;;1.94;90.43
51147;BME280;37207;53.060;18.726;2023-02-25T03:52:28;98187.75;;;1.94;90.49
51147;BME280;37207;53.060;18.726;2023-02-25T03:54:58;98186.86;;;1.93;90.46
51147;BME280;37207;53.060;18.726;2023-02-25T03:57:26;98188.64;;;1.93;90.48
51147;BME280;37207;53.060;18.726;2023-02-25T03:59:59;98186.08;;;1.94;90.59
51147;BME280;37207;53.060;18.726;2023-02-25T04:02:29;98190.38;;;1.94;90.69
51147;BME280;37207;53.060;18.726;2023-02-25T04:04:57;98185.91;;;1.93;90.68
51147;BME280;37207;53.060;18.726;2023-02-25T04:07:24;98184.81;;;1.92;90.74
51147;BME280;37207;53.060;18.726;2023-02-25T04:09:50;98183.86;;;1.91;90.71
51147;BME280;37207;53.060;18.726;2023-02-25T04:12:16;98182.19;;;1.90;90.89
51147;BME280;37207;53.060;18.726;2023-02-25T04:14:42;98180.51;;;1.91;90.90
51147;BME280;37207;53.060;18.726;2023-02-25T04:17:08;98176.45;;;1.90;90.91
51147;BME280;37207;53.060;18.726;2023-02-25T04:19:36;98181.01;;;1.88;90.88
51147;BME280;37207;53.060;18.726;2023-02-25T04:22:02;98179.80;;;1.87;90.86
51147;BME280;37207;53.060;18.726;2023-02-25T04:24:30;98177.45;;;1.84;90.84
51147;BME280;37207;53.060;18.726;2023-02-25T04:26:56;98175.02;;;1.82;90.90
51147;BME280;37207;53.060;18.726;2023-02-25T04:29:24;98170.68;;;1.80;91.01
51147;BME280;37207;53.060;18.726;2023-02-25T04:31:54;98170.71;;;1.78;91.06
51147;BME280;37207;53.060;18.726;2023-02-25T04:34:20;98167.20;;;1.77;91.09
51147;BME280;37207;53.060;18.726;2023-02-25T04:36:46;98166.30;;;1.76;91.33
51147;BME280;37207;53.060;18.726;2023-02-25T04:39:14;98163.36;;;1.74;91.33
51147;BME280;37207;53.060;18.726;2023-02-25T04:41:43;98162.37;;;1.74;91.42
51147;BME280;37207;53.060;18.726;2023-02-25T04:44:09;98162.23;;;1.75;91.49
51147;BME280;37207;53.060;18.726;2023-02-25T04:46:38;98162.78;;;1.76;91.59
51147;BME280;37207;53.060;18.726;2023-02-25T04:49:06;98161.80;;;1.76;91.90
51147;BME280;37207;53.060;18.726;2023-02-25T04:51:35;98156.39;;;1.75;91.87
51147;BME280;37207;53.060;18.726;2023-02-25T04:54:01;98153.52;;;1.75;91.96
51147;BME280;37207;53.060;18.726;2023-02-25T04:56:27;98152.63;;;1.75;92.03
51147;BME280;37207;53.060;18.726;2023-02-25T04:58:53;98148.59;;;1.77;91.80
51147;BME280;37207;53.060;18.726;2023-02-25T05:01:20;98148.06;;;1.79;91.85
51147;BME280;37207;53.060;18.726;2023-02-25T05:03:46;98147.82;;;1.80;92.13
51147;BME280;37207;53.060;18.726;2023-02-25T05:06:12;98143.51;;;1.79;92.12
51147;BME280;37207;53.060;18.726;2023-02-25T05:08:38;98142.72;;;1.79;92.16
51147;BME280;37207;53.060;18.726;2023-02-25T05:11:04;98139.35;;;1.79;92.39
51147;BME280;37207;53.060;18.726;2023-02-25T05:13:30;98136.44;;;1.80;92.24
51147;BME280;37207;53.060;18.726;2023-02-25T05:16:06;98138.73;;;1.82;92.28
51147;BME280;37207;53.060;18.726;2023-02-25T05:18:37;98133.48;;;1.81;92.47
51147;BME280;37207;53.060;18.726;2023-02-25T05:21:07;98134.32;;;1.82;92.47
51147;BME280;37207;53.060;18.726;2023-02-25T05:23:34;98128.79;;;1.82;92.54
51147;BME280;37207;53.060;18.726;2023-02-25T05:26:00;98127.54;;;1.82;92.56
51147;BME280;37207;53.060;18.726;2023-02-25T05:28:25;98130.81;;;1.82;92.67
51147;BME280;37207;53.060;18.726;2023-02-25T05:30:51;98126.95;;;1.82;92.69
51147;BME280;37207;53.060;18.726;2023-02-25T05:33:21;98127.85;;;1.83;92.62
51147;BME280;37207;53.060;18.726;2023-02-25T05:35:50;98125.63;;;1.84;92.71
51147;BME280;37207;53.060;18.726;2023-02-25T05:38:16;98125.10;;;1.85;92.77
51147;BME280;37207;53.060;18.726;2023-02-25T05:40:41;98130.23;;;1.86;92.73
51147;BME280;37207;53.060;18.726;2023-02-25T05:43:07;98129.36;;;1.86;92.78
51147;BME280;37207;53.060;18.726;2023-02-25T05:45:36;98129.21;;;1.86;92.75
51147;BME280;37207;53.060;18.726;2023-02-25T05:48:02;98132.63;;;1.87;92.88
51147;BME280;37207;53.060;18.726;2023-02-25T05:50:28;98131.84;;;1.88;92.81
51147;BME280;37207;53.060;18.726;2023-02-25T05:52:57;98131.80;;;1.88;92.93
51147;BME280;37207;53.060;18.726;2023-02-25T05:55:23;98131.80;;;1.88;93.08
51147;BME280;37207;53.060;18.726;2023-02-25T05:57:51;98134.48;;;1.90;92.87
51147;BME280;37207;53.060;18.726;2023-02-25T06:00:17;98130.86;;;1.91;92.93
51147;BME280;37207;53.060;18.726;2023-02-25T06:02:52;98135.55;;;1.91;93.07
51147;BME280;37207;53.060;18.726;2023-02-25T06:05:18;98137.19;;;1.91;93.09
51147;BME280;37207;53.060;18.726;2023-02-25T06:07:43;98137.05;;;1.92;93.01
51147;BME280;37207;53.060;18.726;2023-02-25T06:10:10;98136.52;;;1.93;93.03
51147;BME280;37207;53.060;18.726;2023-02-25T06:12:36;98132.46;;;1.95;93.03
51147;BME280;37207;53.060;18.726;2023-02-25T06:15:03;98132.82;;;1.95;93.04
51147;BME280;37207;53.060;18.726;2023-02-25T06:17:29;98129.90;;;1.96;93.06
51147;BME280;37207;53.060;18.726;2023-02-25T06:19:55;98132.33;;;1.95;93.02
51147;BME280;37207;53.060;18.726;2023-02-25T06:22:21;98128.77;;;1.96;93.12
51147;BME280;37207;53.060;18.726;2023-02-25T06:24:47;98133.23;;;1.97;93.15
51147;BME280;37207;53.060;18.726;2023-02-25T06:27:14;98131.61;;;1.99;93.29
51147;BME280;37207;53.060;18.726;2023-02-25T06:29:47;98133.66;;;2.03;93.30
51147;BME280;37207;53.060;18.726;2023-02-25T06:32:14;98135.02;;;2.05;93.30
51147;BME280;37207;53.060;18.726;2023-02-25T06:34:49;98137.75;;;2.07;93.42
51147;BME280;37207;53.060;18.726;2023-02-25T06:37:15;98137.05;;;2.09;93.49
51147;BME280;37207;53.060;18.726;2023-02-25T06:39:40;98137.61;;;2.13;93.46
51147;BME280;37207;53.060;18.726;2023-02-25T06:42:16;98137.45;;;2.16;93.44
51147;BME280;37207;53.060;18.726;2023-02-25T06:44:42;98141.14;;;2.21;93.35
51147;BME280;37207;53.060;18.726;2023-02-25T06:47:08;98140.21;;;2.24;93.47
51147;BME280;37207;53.060;18.726;2023-02-25T06:49:33;98143.33;;;2.28;93.47
51147;BME280;37207;53.060;18.726;2023-02-25T06:51:59;98138.29;;;2.31;93.54
51147;BME280;37207;53.060;18.726;2023-02-25T06:54:25;98141.20;;;2.34;93.48
51147;BME280;37207;53.060;18.726;2023-02-25T06:56:53;98135.17;;;2.37;93.62
51147;BME280;37207;53.060;18.726;2023-02-25T06:59:19;98140.64;;;2.40;93.63
51147;BME280;37207;53.060;18.726;2023-02-25T07:01:45;98139.49;;;2.44;93.55
51147;BME280;37207;53.060;18.726;2023-02-25T07:04:16;98140.80;;;2.47;93.53
51147;BME280;37207;53.060;18.726;2023-02-25T07:06:44;98142.64;;;2.50;93.57
51147;BME280;37207;53.060;18.726;2023-02-25T07:09:10;98141.08;;;2.53;93.55
51147;BME280;37207;53.060;18.726;2023-02-25T07:11:38;98140.19;;;2.54;93.56
51147;BME280;37207;53.060;18.726;2023-02-25T07:14:11;98140.02;;;2.57;93.63
51147;BME280;37207;53.060;18.726;2023-02-25T07:16:43;98136.45;;;2.59;93.59
51147;BME280;37207;53.060;18.726;2023-02-25T07:19:09;98136.14;;;2.61;93.57
51147;BME280;37207;53.060;18.726;2023-02-25T07:21:35;98135.50;;;2.64;93.60
51147;BME280;37207;53.060;18.726;2023-02-25T07:24:00;98138.84;;;2.66;93.58
51147;BME280;37207;53.060;18.726;2023-02-25T07:26:26;98138.64;;;2.68;93.61
51147;BME280;37207;53.060;18.726;2023-02-25T07:29:05;98140.59;;;2.70;93.48
51147;BME280;37207;53.060;18.726;2023-02-25T07:31:31;98141.69;;;2.74;93.58
51147;BME280;37207;53.060;18.726;2023-02-25T07:34:05;98137.88;;;2.78;93.66
51147;BME280;37207;53.060;18.726;2023-02-25T07:36:40;98139.09;;;2.84;93.75
51147;BME280;37207;53.060;18.726;2023-02-25T07:39:15;98137.73;;;2.90;93.69
51147;BME280;37207;53.060;18.726;2023-02-25T07:41:41;98140.05;;;2.97;93.72
51147;BME280;37207;53.060;18.726;2023-02-25T07:44:12;98139.66;;;3.02;93.56
51147;BME280;37207;53.060;18.726;2023-02-25T07:46:38;98141.08;;;3.09;93.56
51147;BME280;37207;53.060;18.726;2023-02-25T07:49:07;98141.31;;;3.16;93.49
51147;BME280;37207;53.060;18.726;2023-02-25T07:51:42;98139.51;;;3.23;93.50
51147;BME280;37207;53.060;18.726;2023-02-25T07:54:08;98146.09;;;3.31;93.26
51147;BME280;37207;53.060;18.726;2023-02-25T07:56:34;98143.17;;;3.35;93.27
51147;BME280;37207;53.060;18.726;2023-02-25T07:59:00;98145.02;;;3.39;93.11
51147;BME280;37207;53.060;18.726;2023-02-25T08:01:32;98147.55;;;3.42;93.08
51147;BME280;37207;53.060;18.726;2023-02-25T08:04:06;98145.08;;;3.43;92.94
51147;BME280;37207;53.060;18.726;2023-02-25T08:06:42;98146.46;;;3.43;92.72
51147;BME280;37207;53.060;18.726;2023-02-25T08:09:10;98149.94;;;3.42;92.72
51147;BME280;37207;53.060;18.726;2023-02-25T08:11:49;98145.67;;;3.42;92.67
51147;BME280;37207;53.060;18.726;2023-02-25T08:14:22;98149.48;;;3.42;92.73
51147;BME280;37207;53.060;18.726;2023-02-25T08:16:48;98146.56;;;3.42;92.50
51147;BME280;37207;53.060;18.726;2023-02-25T08:19:14;98146.77;;;3.41;92.71
51147;BME280;37207;53.060;18.726;2023-02-25T08:21:40;98143.58;;;3.40;92.49
51147;BME280;37207;53.060;18.726;2023-02-25T08:24:07;98144.91;;;3.38;92.41
51147;BME280;37207;53.060;18.726;2023-02-25T08:26:33;98145.91;;;3.38;92.51
51147;BME280;37207;53.060;18.726;2023-02-25T08:28:59;98143.96;;;3.36;92.31
51147;BME280;37207;53.060;18.726;2023-02-25T08:31:25;98149.38;;;3.35;92.38
51147;BME280;37207;53.060;18.726;2023-02-25T08:33:52;98150.27;;;3.34;92.44
51147;BME280;37207;53.060;18.726;2023-02-25T08:36:25;98150.63;;;3.39;92.63
51147;BME280;37207;53.060;18.726;2023-02-25T08:38:59;98150.98;;;3.45;92.43
51147;BME280;37207;53.060;18.726;2023-02-25T08:41:35;98149.67;;;3.52;92.24
51147;BME280;37207;53.060;18.726;2023-02-25T08:44:10;98153.81;;;3.61;92.32
51147;BME280;37207;53.060;18.726;2023-02-25T08:46:45;98155.73;;;3.69;92.29
51147;BME280;37207;53.060;18.726;2023-02-25T08:49:11;98157.95;;;3.80;92.28
51147;BME280;37207;53.060;18.726;2023-02-25T08:51:49;98158.09;;;3.87;92.01
51147;BME280;37207;53.060;18.726;2023-02-25T08:54:15;98158.64;;;3.91;91.91
51147;BME280;37207;53.060;18.726;2023-02-25T08:56:42;98159.64;;;3.92;91.62
51147;BME280;37207;53.060;18.726;2023-02-25T08:59:16;98167.48;;;3.92;91.79
51147;BME280;37207;53.060;18.726;2023-02-25T09:01:50;98168.88;;;3.92;91.54
51147;BME280;37207;53.060;18.726;2023-02-25T09:04:25;98169.13;;;3.95;91.48
51147;BME280;37207;53.060;18.726;2023-02-25T09:07:00;98170.29;;;4.01;91.60
51147;BME280;37207;53.060;18.726;2023-02-25T09:09:27;98174.95;;;4.06;91.56
51147;BME280;37207;53.060;18.726;2023-02-25T09:11:53;98173.07;;;4.09;91.66
51147;BME280;37207;53.060;18.726;2023-02-25T09:14:20;98178.18;;;4.10;91.41
51147;BME280;37207;53.060;18.726;2023-02-25T09:16:46;98176.10;;;4.11;91.12
51147;BME280;37207;53.060;18.726;2023-02-25T09:19:12;98181.16;;;4.10;90.96
51147;BME280;37207;53.060;18.726;2023-02-25T09:21:44;98183.45;;;4.07;90.94
51147;BME280;37207;53.060;18.726;2023-02-25T09:24:15;98180.67;;;4.05;90.73
51147;BME280;37207;53.060;18.726;2023-02-25T09:26:46;98185.73;;;3.99;90.48
51147;BME280;37207;53.060;18.726;2023-02-25T09:29:12;98184.07;;;3.95;90.73
51147;BME280;37207;53.060;18.726;2023-02-25T09:31:38;98184.02;;;3.95;90.81
51147;BME280;37207;53.060;18.726;2023-02-25T09:34:10;98187.75;;;3.96;91.10
51147;BME280;37207;53.060;18.726;2023-02-25T09:37:03;98187.48;;;4.00;91.22
51147;BME280;37207;53.060;18.726;2023-02-25T09:39:30;98188.71;;;4.10;91.46
51147;BME280;37207;53.060;18.726;2023-02-25T09:44:53;98189.91;;;4.32;91.23
51147;BME280;37207;53.060;18.726;2023-02-25T09:50:15;98193.96;;;4.36;90.68
51147;BME280;37207;53.060;18.726;2023-02-25T09:55:31;98209.44;;;4.24;89.24
51147;BME280;37207;53.060;18.726;2023-02-25T10:00:44;98213.91;;;3.85;89.09
51147;BME280;37207;53.060;18.726;2023-02-25T10:03:23;98212.02;;;3.69;89.35
51147;BME280;37207;53.060;18.726;2023-02-25T10:09:05;98218.77;;;3.60;90.00
51147;BME280;37207;53.060;18.726;2023-02-25T10:11:51;98223.45;;;3.60;90.17
51147;BME280;37207;53.060;18.726;2023-02-25T10:25:16;98240.44;;;3.47;90.29
51147;BME280;37207;53.060;18.726;2023-02-25T10:27:53;98240.45;;;3.44;90.45
51147;BME280;37207;53.060;18.726;2023-02-25T10:33:21;98243.05;;;3.38;90.43
51147;BME280;37207;53.060;18.726;2023-02-25T10:36:19;98245.28;;;3.35;90.31
51147;BME280;37207;53.060;18.726;2023-02-25T10:38:55;98251.02;;;3.33;90.44
51147;BME280;37207;53.060;18.726;2023-02-25T10:41:22;98253.45;;;3.33;90.67
51147;BME280;37207;53.060;18.726;2023-02-25T10:43:53;98251.58;;;3.28;90.63
51147;BME280;37207;53.060;18.726;2023-02-25T10:46:29;98257.27;;;3.25;90.72
51147;BME280;37207;53.060;18.726;2023-02-25T10:49:24;98256.95;;;3.19;90.69
51147;BME280;37207;53.060;18.726;2023-02-25T10:52:13;98263.86;;;3.13;90.80
51147;BME280;37207;53.060;18.726;2023-02-25T10:54:47;98264.17;;;3.10;90.85
51147;BME280;37207;53.060;18.726;2023-02-25T10:57:26;98262.80;;;3.11;91.23
51147;BME280;37207;53.060;18.726;2023-02-25T11:00:15;98266.95;;;3.13;91.55
51147;BME280;37207;53.060;18.726;2023-02-25T11:02:51;98272.35;;;3.15;91.44
51147;BME280;37207;53.060;18.726;2023-02-25T11:05:37;98279.25;;;3.15;91.21
51147;BME280;37207;53.060;18.726;2023-02-25T11:08:32;98276.93;;;3.17;91.36
51147;BME280;37207;53.060;18.726;2023-02-25T11:11:15;98278.45;;;3.27;91.93
51147;BME280;37207;53.060;18.726;2023-02-25T11:14:14;98283.15;;;3.37;91.96
51147;BME280;37207;53.060;18.726;2023-02-25T11:16:47;98282.03;;;3.47;91.90
51147;BME280;37207;53.060;18.726;2023-02-25T11:19:25;98287.89;;;3.54;91.72
51147;BME280;37207;53.060;18.726;2023-02-25T11:21:56;98283.51;;;3.61;91.49
51147;BME280;37207;53.060;18.726;2023-02-25T11:24:33;98285.14;;;3.64;90.95
51147;BME280;37207;53.060;18.726;2023-02-25T11:27:04;98288.11;;;3.65;90.78
51147;BME280;37207;53.060;18.726;2023-02-25T11:29:43;98289.26;;;3.67;90.94
51147;BME280;37207;53.060;18.726;2023-02-25T11:32:21;98293.13;;;3.66;90.71
51147;BME280;37207;53.060;18.726;2023-02-25T11:34:59;98296.02;;;3.61;90.71
51147;BME280;37207;53.060;18.726;2023-02-25T11:37:43;98296.44;;;3.54;90.56
51147;BME280;37207;53.060;18.726;2023-02-25T11:40:33;98297.63;;;3.54;90.98
51147;BME280;37207;53.060;18.726;2023-02-25T11:43:25;98300.38;;;3.62;91.17
51147;BME280;37207;53.060;18.726;2023-02-25T11:46:01;98302.69;;;3.76;91.22
51147;BME280;37207;53.060;18.726;2023-02-25T11:48:39;98302.84;;;3.82;90.80
51147;BME280;37207;53.060;18.726;2023-02-25T11:51:45;98310.70;;;3.91;90.76
51147;BME280;37207;53.060;18.726;2023-02-25T11:54:33;98315.07;;;3.89;90.32
51147;BME280;37207;53.060;18.726;2023-02-25T11:57:38;98322.55;;;3.84;90.42
51147;BME280;37207;53.060;18.726;2023-02-25T12:03:11;98327.71;;;3.83;90.68
51147;BME280;37207;53.060;18.726;2023-02-25T12:05:49;98329.90;;;3.86;90.87
51147;BME280;37207;53.060;18.726;2023-02-25T12:19:47;98336.60;;;3.77;90.56
51147;BME280;37207;53.060;18.726;2023-02-25T12:31:29;98342.90;;;3.75;90.74
51147;BME280;37207;53.060;18.726;2023-02-25T12:42:03;98355.14;;;3.62;91.32
51147;BME280;37207;53.060;18.726;2023-02-25T12:44:49;98361.54;;;3.61;91.38
51147;BME280;37207;53.060;18.726;2023-02-25T12:47:35;98367.23;;;3.58;91.58
51147;BME280;37207;53.060;18.726;2023-02-25T12:59:07;98376.79;;;3.54;92.07
51147;BME280;37207;53.060;18.726;2023-02-25T13:01:47;98379.17;;;3.53;92.16
51147;BME280;37207;53.060;18.726;2023-02-25T13:07:27;98385.20;;;3.65;92.61
51147;BME280;37207;53.060;18.726;2023-02-25T13:21:13;98409.39;;;3.95;92.06
51147;BME280;37207;53.060;18.726;2023-02-25T13:24:16;98419.04;;;3.85;91.70
51147;BME280;37207;53.060;18.726;2023-02-25T13:30:01;98439.55;;;3.48;90.92
51147;BME280;37207;53.060;18.726;2023-02-25T13:36:02;98440.05;;;3.13;90.78
51147;BME280;37207;53.060;18.726;2023-02-25T13:38:40;98439.05;;;3.03;91.05
51147;BME280;37207;53.060;18.726;2023-02-25T13:41:35;98442.93;;;2.99;91.28
51147;BME280;37207;53.060;18.726;2023-02-25T13:55:26;98465.23;;;3.12;92.38
51147;BME280;37207;53.060;18.726;2023-02-25T14:12:02;98501.45;;;2.99;92.59
51147;BME280;37207;53.060;18.726;2023-02-25T14:14:51;98513.21;;;2.94;92.49
51147;BME280;37207;53.060;18.726;2023-02-25T14:20:46;98522.00;;;2.83;93.06
51147;BME280;37207;53.060;18.726;2023-02-25T14:28:21;98539.27;;;2.85;93.86
51147;BME280;37207;53.060;18.726;2023-02-25T14:31:26;98540.53;;;2.87;93.94
51147;BME280;37207;53.060;18.726;2023-02-25T14:34:07;98550.80;;;2.88;93.82
51147;BME280;37207;53.060;18.726;2023-02-25T14:39:41;98561.53;;;2.89;93.67
51147;BME280;37207;53.060;18.726;2023-02-25T14:42:35;98562.05;;;2.92;93.67
51147;BME280;37207;53.060;18.726;2023-02-25T14:50:29;98576.92;;;3.04;93.82
51147;BME280;37207;53.060;18.726;2023-02-25T15:04:10;98610.89;;;3.03;93.19
51147;BME280;37207;53.060;18.726;2023-02-25T15:06:59;98616.42;;;2.97;93.18
51147;BME280;37207;53.060;18.726;2023-02-25T15:09:37;98626.12;;;2.93;93.01
51147;BME280;37207;53.060;18.726;2023-02-25T15:18:04;98651.99;;;2.69;92.79
51147;BME280;37207;53.060;18.726;2023-02-25T15:20:39;98656.91;;;2.66;92.90
51147;BME280;37207;53.060;18.726;2023-02-25T15:23:09;98667.52;;;2.63;92.96
51147;BME280;37207;53.060;18.726;2023-02-25T15:25:43;98672.45;;;2.60;92.96
51147;BME280;37207;53.060;18.726;2023-02-25T15:33:46;98685.51;;;2.53;92.90
51147;BME280;37207;53.060;18.726;2023-02-25T15:49:48;98722.56;;;2.34;92.92
51147;BME280;37207;53.060;18.726;2023-02-25T15:55:38;98736.05;;;2.29;92.61
51147;BME280;37207;53.060;18.726;2023-02-25T15:58:51;98741.65;;;2.26;92.53
51147;BME280;37207;53.060;18.726;2023-02-25T16:03:46;98761.52;;;2.21;92.32
51147;BME280;37207;53.060;18.726;2023-02-25T16:06:17;98770.48;;;2.19;92.34
51147;BME280;37207;53.060;18.726;2023-02-25T16:09:00;98776.52;;;2.18;92.37
51147;BME280;37207;53.060;18.726;2023-02-25T16:14:29;98790.58;;;2.14;92.12
51147;BME280;37207;53.060;18.726;2023-02-25T16:20:04;98804.01;;;2.05;91.94
51147;BME280;37207;53.060;18.726;2023-02-25T16:22:30;98813.18;;;2.00;92.09
51147;BME280;37207;53.060;18.726;2023-02-25T16:25:03;98820.20;;;1.97;92.08
51147;BME280;37207;53.060;18.726;2023-02-25T16:27:42;98833.02;;;1.94;92.16
51147;BME280;37207;53.060;18.726;2023-02-25T16:35:43;98856.27;;;1.86;92.59
51147;BME280;37207;53.060;18.726;2023-02-25T16:38:21;98866.21;;;1.83;92.51
51147;BME280;37207;53.060;18.726;2023-02-25T16:40:52;98874.25;;;1.80;92.68
51147;BME280;37207;53.060;18.726;2023-02-25T16:43:28;98883.56;;;1.75;92.63
51147;BME280;37207;53.060;18.726;2023-02-25T16:46:00;98891.03;;;1.71;92.72